sensor_id;sensor_type;location;lat;lon;timestamp;temperature;humidity
5576;DHT22;2810;50.134;8.626;2022-09-01T00:01:17;16.60;99.90
5576;DHT22;2810;50.134;8.626;2022-09-01T00:03:46;16.50;99.90
5576;DHT22;2810;50.134;8.626;2022-09-01T00:06:16;16.50;99.90
5576;DHT22;2810;50.134;8.626;2022-09-01T00:08:53;16.50;99.90
5576;DHT22;2810;50.134;8.626;2022-09-01T00:11:20;16.50;99.90
5576;DHT22;2810;50.134;8.626;2022-09-01T00:13:46;16.40;99.90
5576;DHT22;2810;50.134;8.626;2022-09-01T00:16:12;16.30;99.90
5576;DHT22;2810;50.134;8.626;2022-09-01T00:18:41;16.30;99.90
5576;DHT22;2810;50.134;8.626;2022-09-01T00:21:07;16.20;99.90
5576;DHT22;2810;50.134;8.626;2022-09-01T00:23:32;16.30;99.90
5576;DHT22;2810;50.134;8.626;2022-09-01T00:25:58;16.40;99.90
5576;DHT22;2810;50.134;8.626;2022-09-01T00:28:23;16.40;99.90
5576;DHT22;2810;50.134;8.626;2022-09-01T00:30:49;16.50;99.90
5576;DHT22;2810;50.134;8.626;2022-09-01T00:33:14;16.50;99.90
5576;DHT22;2810;50.134;8.626;2022-09-01T00:35:40;16.50;99.90
5576;DHT22;2810;50.134;8.626;2022-09-01T00:38:06;16.60;99.90
5576;DHT22;2810;50.134;8.626;2022-09-01T00:40:31;16.50;99.90
5576;DHT22;2810;50.134;8.626;2022-09-01T00:42:57;16.50;99.90
5576;DHT22;2810;50.134;8.626;2022-09-01T00:45:22;16.50;99.90
5576;DHT22;2810;50.134;8.626;2022-09-01T00:47:48;16.50;99.90
5576;DHT22;2810;50.134;8.626;2022-09-01T00:50:14;16.50;99.90
5576;DHT22;2810;50.134;8.626;2022-09-01T00:52:45;16.50;99.90
5576;DHT22;2810;50.134;8.626;2022-09-01T00:55:14;16.40;99.90
5576;DHT22;2810;50.134;8.626;2022-09-01T00:57:40;16.50;99.90
5576;DHT22;2810;50.134;8.626;2022-09-01T01:00:14;16.40;99.90
5576;DHT22;2810;50.134;8.626;2022-09-01T01:02:40;16.30;99.90
5576;DHT22;2810;50.134;8.626;2022-09-01T01:05:06;16.30;99.90
5576;DHT22;2810;50.134;8.626;2022-09-01T01:07:32;16.30;99.90
5576;DHT22;2810;50.134;8.626;2022-09-01T01:10:04;16.30;99.90
5576;DHT22;2810;50.134;8.626;2022-09-01T01:12:29;16.40;99.90
5576;DHT22;2810;50.134;8.626;2022-09-01T01:14:55;16.40;99.90
5576;DHT22;2810;50.134;8.626;2022-09-01T01:17:21;16.40;99.90
5576;DHT22;2810;50.134;8.626;2022-09-01T01:19:47;16.40;99.90
5576;DHT22;2810;50.134;8.626;2022-09-01T01:25:35;16.40;99.90
5576;DHT22;2810;50.134;8.626;2022-09-01T01:28:02;16.40;99.90
5576;DHT22;2810;50.134;8.626;2022-09-01T01:30:28;16.30;99.90
5576;DHT22;2810;50.134;8.626;2022-09-01T01:32:56;16.30;99.90
5576;DHT22;2810;50.134;8.626;2022-09-01T01:35:22;16.20;99.90
5576;DHT22;2810;50.134;8.626;2022-09-01T01:37:49;16.20;99.90
5576;DHT22;2810;50.134;8.626;2022-09-01T01:40:16;16.10;99.90
5576;DHT22;2810;50.134;8.626;2022-09-01T01:42:46;16.00;99.90
5576;DHT22;2810;50.134;8.626;2022-09-01T01:45:13;16.00;99.90
5576;DHT22;2810;50.134;8.626;2022-09-01T01:47:42;16.00;99.90
5576;DHT22;2810;50.134;8.626;2022-09-01T01:50:10;16.00;99.90
5576;DHT22;2810;50.134;8.626;2022-09-01T01:52:36;16.00;99.90
5576;DHT22;2810;50.134;8.626;2022-09-01T01:55:02;16.00;99.90
5576;DHT22;2810;50.134;8.626;2022-09-01T01:57:27;16.00;99.90
5576;DHT22;2810;50.134;8.626;2022-09-01T01:59:56;15.90;99.90
5576;DHT22;2810;50.134;8.626;2022-09-01T02:02:22;15.80;99.90
5576;DHT22;2810;50.134;8.626;2022-09-01T02:04:47;15.90;99.90
5576;DHT22;2810;50.134;8.626;2022-09-01T02:07:12;15.80;99.90
5576;DHT22;2810;50.134;8.626;2022-09-01T02:09:38;15.70;99.90
5576;DHT22;2810;50.134;8.626;2022-09-01T02:12:05;15.80;99.90
5576;DHT22;2810;50.134;8.626;2022-09-01T02:14:32;15.80;99.90
5576;DHT22;2810;50.134;8.626;2022-09-01T02:16:57;15.80;99.90
5576;DHT22;2810;50.134;8.626;2022-09-01T02:19:23;15.70;99.90
5576;DHT22;2810;50.134;8.626;2022-09-01T02:21:48;15.60;99.90
5576;DHT22;2810;50.134;8.626;2022-09-01T02:24:18;15.60;99.90
5576;DHT22;2810;50.134;8.626;2022-09-01T02:26:45;15.50;99.90
5576;DHT22;2810;50.134;8.626;2022-09-01T02:29:14;15.60;99.90
5576;DHT22;2810;50.134;8.626;2022-09-01T02:31:44;15.30;99.90
5576;DHT22;2810;50.134;8.626;2022-09-01T02:34:10;15.20;99.90
5576;DHT22;2810;50.134;8.626;2022-09-01T02:36:41;15.20;99.90
5576;DHT22;2810;50.134;8.626;2022-09-01T02:39:15;15.20;99.90
5576;DHT22;2810;50.134;8.626;2022-09-01T02:41:41;15.20;99.90
5576;DHT22;2810;50.134;8.626;2022-09-01T02:44:07;15.20;99.90
5576;DHT22;2810;50.134;8.626;2022-09-01T02:46:42;15.20;99.90
5576;DHT22;2810;50.134;8.626;2022-09-01T02:49:13;15.30;99.90
5576;DHT22;2810;50.134;8.626;2022-09-01T02:51:42;15.40;99.90
5576;DHT22;2810;50.134;8.626;2022-09-01T02:54:08;15.30;99.90
5576;DHT22;2810;50.134;8.626;2022-09-01T02:56:33;15.30;99.90
5576;DHT22;2810;50.134;8.626;2022-09-01T02:58:59;15.30;99.90
5576;DHT22;2810;50.134;8.626;2022-09-01T03:01:28;15.30;99.90
5576;DHT22;2810;50.134;8.626;2022-09-01T03:03:55;15.30;99.90
5576;DHT22;2810;50.134;8.626;2022-09-01T03:06:21;15.40;99.90
5576;DHT22;2810;50.134;8.626;2022-09-01T03:08:49;15.40;99.90
5576;DHT22;2810;50.134;8.626;2022-09-01T03:11:14;15.50;99.90
5576;DHT22;2810;50.134;8.626;2022-09-01T03:13:40;15.30;99.90
5576;DHT22;2810;50.134;8.626;2022-09-01T03:16:06;15.20;99.90
5576;DHT22;2810;50.134;8.626;2022-09-01T03:18:32;15.40;99.90
5576;DHT22;2810;50.134;8.626;2022-09-01T03:20:58;15.50;99.90
5576;DHT22;2810;50.134;8.626;2022-09-01T03:23:23;15.50;99.90
5576;DHT22;2810;50.134;8.626;2022-09-01T03:25:52;15.30;99.90
5576;DHT22;2810;50.134;8.626;2022-09-01T03:28:17;15.30;99.90
5576;DHT22;2810;50.134;8.626;2022-09-01T03:30:44;15.20;99.90
5576;DHT22;2810;50.134;8.626;2022-09-01T03:33:10;15.20;99.90
5576;DHT22;2810;50.134;8.626;2022-09-01T03:35:35;15.30;99.90
5576;DHT22;2810;50.134;8.626;2022-09-01T03:38:01;15.20;99.90
5576;DHT22;2810;50.134;8.626;2022-09-01T03:40:29;15.10;99.90
5576;DHT22;2810;50.134;8.626;2022-09-01T03:43:00;15.00;99.90
5576;DHT22;2810;50.134;8.626;2022-09-01T03:45:26;15.00;99.90
5576;DHT22;2810;50.134;8.626;2022-09-01T03:47:52;14.90;99.90
5576;DHT22;2810;50.134;8.626;2022-09-01T03:50:19;15.00;99.90
5576;DHT22;2810;50.134;8.626;2022-09-01T03:52:49;15.00;99.90
5576;DHT22;2810;50.134;8.626;2022-09-01T03:55:16;14.90;99.90
5576;DHT22;2810;50.134;8.626;2022-09-01T03:57:48;14.90;99.90
5576;DHT22;2810;50.134;8.626;2022-09-01T04:00:13;14.90;99.90
5576;DHT22;2810;50.134;8.626;2022-09-01T04:02:45;14.90;99.90
5576;DHT22;2810;50.134;8.626;2022-09-01T04:05:11;14.90;99.90
5576;DHT22;2810;50.134;8.626;2022-09-01T04:07:37;14.90;99.90
5576;DHT22;2810;50.134;8.626;2022-09-01T04:10:03;14.80;99.90
5576;DHT22;2810;50.134;8.626;2022-09-01T04:12:28;14.70;99.90
5576;DHT22;2810;50.134;8.626;2022-09-01T04:14:55;14.70;99.90
5576;DHT22;2810;50.134;8.626;2022-09-01T04:17:20;14.60;99.90
5576;DHT22;2810;50.134;8.626;2022-09-01T04:20:04;14.50;99.90
5576;DHT22;2810;50.134;8.626;2022-09-01T04:22:32;14.40;99.90
5576;DHT22;2810;50.134;8.626;2022-09-01T04:25:01;14.40;99.90
5576;DHT22;2810;50.134;8.626;2022-09-01T04:27:27;14.40;99.90
5576;DHT22;2810;50.134;8.626;2022-09-01T04:29:53;14.50;99.90
5576;DHT22;2810;50.134;8.626;2022-09-01T04:32:18;14.40;99.90
5576;DHT22;2810;50.134;8.626;2022-09-01T04:34:46;14.50;99.90
5576;DHT22;2810;50.134;8.626;2022-09-01T04:37:13;14.60;99.90
5576;DHT22;2810;50.134;8.626;2022-09-01T04:39:39;14.50;99.90
5576;DHT22;2810;50.134;8.626;2022-09-01T04:42:12;14.40;99.90
5576;DHT22;2810;50.134;8.626;2022-09-01T04:44:38;14.30;99.90
5576;DHT22;2810;50.134;8.626;2022-09-01T04:47:04;14.20;99.90
5576;DHT22;2810;50.134;8.626;2022-09-01T04:49:35;14.10;99.90
5576;DHT22;2810;50.134;8.626;2022-09-01T04:52:01;14.20;99.90
5576;DHT22;2810;50.134;8.626;2022-09-01T04:54:27;14.20;99.90
5576;DHT22;2810;50.134;8.626;2022-09-01T04:56:53;14.30;99.90
5576;DHT22;2810;50.134;8.626;2022-09-01T04:59:20;14.30;99.90
5576;DHT22;2810;50.134;8.626;2022-09-01T05:01:46;14.40;99.90
5576;DHT22;2810;50.134;8.626;2022-09-01T05:04:15;14.40;99.90
5576;DHT22;2810;50.134;8.626;2022-09-01T05:06:46;14.20;99.90
5576;DHT22;2810;50.134;8.626;2022-09-01T05:09:13;14.30;99.90
5576;DHT22;2810;50.134;8.626;2022-09-01T05:11:41;14.20;99.90
5576;DHT22;2810;50.134;8.626;2022-09-01T05:14:09;14.20;99.90
5576;DHT22;2810;50.134;8.626;2022-09-01T05:16:35;14.20;99.90
5576;DHT22;2810;50.134;8.626;2022-09-01T05:19:02;14.20;99.90
5576;DHT22;2810;50.134;8.626;2022-09-01T05:21:27;14.30;99.90
5576;DHT22;2810;50.134;8.626;2022-09-01T05:23:54;14.30;99.90
5576;DHT22;2810;50.134;8.626;2022-09-01T05:26:24;14.50;99.90
5576;DHT22;2810;50.134;8.626;2022-09-01T05:28:51;14.50;99.90
5576;DHT22;2810;50.134;8.626;2022-09-01T05:31:18;14.60;99.90
5576;DHT22;2810;50.134;8.626;2022-09-01T05:33:44;14.90;99.90
5576;DHT22;2810;50.134;8.626;2022-09-01T05:36:10;14.90;99.90
5576;DHT22;2810;50.134;8.626;2022-09-01T05:38:36;15.10;99.90
5576;DHT22;2810;50.134;8.626;2022-09-01T05:41:07;15.20;99.90
5576;DHT22;2810;50.134;8.626;2022-09-01T05:43:33;15.40;99.90
5576;DHT22;2810;50.134;8.626;2022-09-01T05:46:00;15.60;99.90
5576;DHT22;2810;50.134;8.626;2022-09-01T05:48:28;15.80;99.90
5576;DHT22;2810;50.134;8.626;2022-09-01T05:50:56;16.00;99.90
5576;DHT22;2810;50.134;8.626;2022-09-01T05:53:24;15.90;99.90
5576;DHT22;2810;50.134;8.626;2022-09-01T05:55:51;16.00;99.90
5576;DHT22;2810;50.134;8.626;2022-09-01T05:58:21;16.10;99.90
5576;DHT22;2810;50.134;8.626;2022-09-01T06:00:49;16.20;99.90
5576;DHT22;2810;50.134;8.626;2022-09-01T06:03:16;16.20;99.90
5576;DHT22;2810;50.134;8.626;2022-09-01T06:05:41;16.20;99.90
5576;DHT22;2810;50.134;8.626;2022-09-01T06:08:09;16.20;99.90
5576;DHT22;2810;50.134;8.626;2022-09-01T06:10:35;16.20;99.90
5576;DHT22;2810;50.134;8.626;2022-09-01T06:13:05;16.30;99.90
5576;DHT22;2810;50.134;8.626;2022-09-01T06:15:31;16.30;99.90
5576;DHT22;2810;50.134;8.626;2022-09-01T06:17:57;16.40;99.90
5576;DHT22;2810;50.134;8.626;2022-09-01T06:20:23;16.40;99.90
5576;DHT22;2810;50.134;8.626;2022-09-01T06:22:48;16.30;99.90
5576;DHT22;2810;50.134;8.626;2022-09-01T06:25:14;16.50;99.90
5576;DHT22;2810;50.134;8.626;2022-09-01T06:27:43;16.50;99.90
5576;DHT22;2810;50.134;8.626;2022-09-01T06:30:09;16.50;99.90
5576;DHT22;2810;50.134;8.626;2022-09-01T06:32:41;16.60;99.90
5576;DHT22;2810;50.134;8.626;2022-09-01T06:35:14;16.60;99.90
5576;DHT22;2810;50.134;8.626;2022-09-01T06:37:40;16.70;99.90
5576;DHT22;2810;50.134;8.626;2022-09-01T06:40:08;16.70;99.90
5576;DHT22;2810;50.134;8.626;2022-09-01T06:42:35;16.80;99.90
5576;DHT22;2810;50.134;8.626;2022-09-01T06:45:02;16.80;99.90
5576;DHT22;2810;50.134;8.626;2022-09-01T06:47:28;16.90;99.90
5576;DHT22;2810;50.134;8.626;2022-09-01T06:49:54;17.00;99.90
5576;DHT22;2810;50.134;8.626;2022-09-01T06:52:24;17.20;99.90
5576;DHT22;2810;50.134;8.626;2022-09-01T06:54:50;17.30;99.90
5576;DHT22;2810;50.134;8.626;2022-09-01T06:57:17;17.50;99.90
5576;DHT22;2810;50.134;8.626;2022-09-01T06:59:42;17.80;99.90
5576;DHT22;2810;50.134;8.626;2022-09-01T07:02:08;17.90;99.90
5576;DHT22;2810;50.134;8.626;2022-09-01T07:04:34;18.10;99.90
5576;DHT22;2810;50.134;8.626;2022-09-01T07:07:03;18.70;99.90
5576;DHT22;2810;50.134;8.626;2022-09-01T07:09:30;19.50;99.90
5576;DHT22;2810;50.134;8.626;2022-09-01T07:11:55;19.60;99.90
5576;DHT22;2810;50.134;8.626;2022-09-01T07:14:22;19.50;99.90
5576;DHT22;2810;50.134;8.626;2022-09-01T07:16:48;19.80;99.90
5576;DHT22;2810;50.134;8.626;2022-09-01T07:19:15;19.90;99.90
5576;DHT22;2810;50.134;8.626;2022-09-01T07:21:41;19.70;99.90
5576;DHT22;2810;50.134;8.626;2022-09-01T07:24:08;19.70;99.90
5576;DHT22;2810;50.134;8.626;2022-09-01T07:26:33;19.60;99.90
5576;DHT22;2810;50.134;8.626;2022-09-01T07:29:00;20.00;99.90
5576;DHT22;2810;50.134;8.626;2022-09-01T07:31:29;20.60;99.90
5576;DHT22;2810;50.134;8.626;2022-09-01T07:33:58;20.80;99.90
5576;DHT22;2810;50.134;8.626;2022-09-01T07:36:24;20.90;99.90
5576;DHT22;2810;50.134;8.626;2022-09-01T07:38:49;21.40;99.90
5576;DHT22;2810;50.134;8.626;2022-09-01T07:41:22;21.50;99.90
5576;DHT22;2810;50.134;8.626;2022-09-01T07:43:48;21.60;99.90
5576;DHT22;2810;50.134;8.626;2022-09-01T07:46:18;21.70;99.90
5576;DHT22;2810;50.134;8.626;2022-09-01T07:48:43;22.10;99.20
5576;DHT22;2810;50.134;8.626;2022-09-01T07:51:10;22.30;98.40
5576;DHT22;2810;50.134;8.626;2022-09-01T07:53:37;22.20;97.90
5576;DHT22;2810;50.134;8.626;2022-09-01T07:56:07;22.30;98.20
5576;DHT22;2810;50.134;8.626;2022-09-01T07:58:34;22.70;96.80
5576;DHT22;2810;50.134;8.626;2022-09-01T08:00:59;22.50;97.00
5576;DHT22;2810;50.134;8.626;2022-09-01T08:03:28;22.30;97.20
5576;DHT22;2810;50.134;8.626;2022-09-01T08:05:54;22.20;97.50
5576;DHT22;2810;50.134;8.626;2022-09-01T08:08:23;22.20;96.90
5576;DHT22;2810;50.134;8.626;2022-09-01T08:10:49;22.30;96.80
5576;DHT22;2810;50.134;8.626;2022-09-01T08:13:15;23.00;95.60
5576;DHT22;2810;50.134;8.626;2022-09-01T08:15:40;23.10;95.00
5576;DHT22;2810;50.134;8.626;2022-09-01T08:18:06;23.70;94.10
5576;DHT22;2810;50.134;8.626;2022-09-01T08:20:32;24.00;93.50
5576;DHT22;2810;50.134;8.626;2022-09-01T08:23:04;24.20;92.60
5576;DHT22;2810;50.134;8.626;2022-09-01T08:25:30;24.10;92.80
5576;DHT22;2810;50.134;8.626;2022-09-01T08:27:55;24.40;92.20
5576;DHT22;2810;50.134;8.626;2022-09-01T08:30:21;24.50;91.70
5576;DHT22;2810;50.134;8.626;2022-09-01T08:32:47;24.60;91.30
5576;DHT22;2810;50.134;8.626;2022-09-01T08:35:13;24.60;91.30
5576;DHT22;2810;50.134;8.626;2022-09-01T08:37:40;25.00;90.90
5576;DHT22;2810;50.134;8.626;2022-09-01T08:40:06;25.30;90.00
5576;DHT22;2810;50.134;8.626;2022-09-01T08:45:22;26.10;87.00
5576;DHT22;2810;50.134;8.626;2022-09-01T08:47:56;25.90;85.30
5576;DHT22;2810;50.134;8.626;2022-09-01T08:50:23;25.40;86.60
5576;DHT22;2810;50.134;8.626;2022-09-01T08:52:50;24.90;89.20
5576;DHT22;2810;50.134;8.626;2022-09-01T08:55:25;24.50;90.20
5576;DHT22;2810;50.134;8.626;2022-09-01T08:57:53;24.10;90.80
5576;DHT22;2810;50.134;8.626;2022-09-01T09:00:24;23.90;91.00
5576;DHT22;2810;50.134;8.626;2022-09-01T09:02:52;24.00;90.80
5576;DHT22;2810;50.134;8.626;2022-09-01T09:10:29;24.30;91.10
5576;DHT22;2810;50.134;8.626;2022-09-01T09:13:07;24.70;90.70
5576;DHT22;2810;50.134;8.626;2022-09-01T09:15:42;25.50;89.40
5576;DHT22;2810;50.134;8.626;2022-09-01T09:18:14;25.30;88.10
5576;DHT22;2810;50.134;8.626;2022-09-01T09:20:41;25.30;88.80
5576;DHT22;2810;50.134;8.626;2022-09-01T09:23:12;25.60;88.20
5576;DHT22;2810;50.134;8.626;2022-09-01T09:25:39;26.00;85.50
5576;DHT22;2810;50.134;8.626;2022-09-01T09:28:04;26.80;82.00
5576;DHT22;2810;50.134;8.626;2022-09-01T09:30:30;27.40;81.10
5576;DHT22;2810;50.134;8.626;2022-09-01T09:33:03;28.60;76.00
5576;DHT22;2810;50.134;8.626;2022-09-01T09:37:56;28.80;73.90
5576;DHT22;2810;50.134;8.626;2022-09-01T09:43:25;28.10;74.90
5576;DHT22;2810;50.134;8.626;2022-09-01T09:45:52;28.70;73.10
5576;DHT22;2810;50.134;8.626;2022-09-01T09:48:37;28.40;73.80
5576;DHT22;2810;50.134;8.626;2022-09-01T09:51:15;28.50;74.30
5576;DHT22;2810;50.134;8.626;2022-09-01T09:53:41;28.40;74.30
5576;DHT22;2810;50.134;8.626;2022-09-01T09:56:17;29.50;71.20
5576;DHT22;2810;50.134;8.626;2022-09-01T09:58:43;29.80;68.30
5576;DHT22;2810;50.134;8.626;2022-09-01T10:01:11;30.10;66.70
5576;DHT22;2810;50.134;8.626;2022-09-01T10:03:43;30.80;65.80
5576;DHT22;2810;50.134;8.626;2022-09-01T10:06:10;31.40;63.40
5576;DHT22;2810;50.134;8.626;2022-09-01T10:11:03;31.50;61.40
5576;DHT22;2810;50.134;8.626;2022-09-01T10:13:29;31.20;61.00
5576;DHT22;2810;50.134;8.626;2022-09-01T10:15:56;30.70;61.90
5576;DHT22;2810;50.134;8.626;2022-09-01T10:18:24;30.90;62.90
5576;DHT22;2810;50.134;8.626;2022-09-01T10:21:01;31.30;60.00
5576;DHT22;2810;50.134;8.626;2022-09-01T10:23:28;31.10;59.60
5576;DHT22;2810;50.134;8.626;2022-09-01T10:26:01;31.10;59.90
5576;DHT22;2810;50.134;8.626;2022-09-01T10:28:27;31.30;61.00
5576;DHT22;2810;50.134;8.626;2022-09-01T10:30:55;31.70;58.80
5576;DHT22;2810;50.134;8.626;2022-09-01T10:33:23;31.50;59.10
5576;DHT22;2810;50.134;8.626;2022-09-01T10:35:52;31.30;58.00
5576;DHT22;2810;50.134;8.626;2022-09-01T10:38:19;30.90;58.70
5576;DHT22;2810;50.134;8.626;2022-09-01T10:40:45;30.70;58.80
5576;DHT22;2810;50.134;8.626;2022-09-01T10:45:56;30.30;58.80
5576;DHT22;2810;50.134;8.626;2022-09-01T10:48:24;31.20;58.10
5576;DHT22;2810;50.134;8.626;2022-09-01T10:50:51;31.30;56.80
5576;DHT22;2810;50.134;8.626;2022-09-01T10:56:40;30.70;57.70
5576;DHT22;2810;50.134;8.626;2022-09-01T11:02:03;28.20;61.70
5576;DHT22;2810;50.134;8.626;2022-09-01T11:06:54;27.30;64.10
5576;DHT22;2810;50.134;8.626;2022-09-01T11:11:50;26.30;69.20
5576;DHT22;2810;50.134;8.626;2022-09-01T11:14:21;26.70;68.30
5576;DHT22;2810;50.134;8.626;2022-09-01T11:19:34;28.80;62.00
5576;DHT22;2810;50.134;8.626;2022-09-01T11:24:50;28.90;62.10
5576;DHT22;2810;50.134;8.626;2022-09-01T11:30:02;29.70;59.00
5576;DHT22;2810;50.134;8.626;2022-09-01T11:32:31;30.60;57.70
5576;DHT22;2810;50.134;8.626;2022-09-01T11:34:58;29.80;59.20
5576;DHT22;2810;50.134;8.626;2022-09-01T11:37:25;29.90;58.50
5576;DHT22;2810;50.134;8.626;2022-09-01T11:39:53;29.20;59.70
5576;DHT22;2810;50.134;8.626;2022-09-01T11:44:51;28.70;59.20
5576;DHT22;2810;50.134;8.626;2022-09-01T11:47:40;28.60;58.70
5576;DHT22;2810;50.134;8.626;2022-09-01T11:50:16;28.70;58.40
5576;DHT22;2810;50.134;8.626;2022-09-01T11:52:42;28.90;57.90
5576;DHT22;2810;50.134;8.626;2022-09-01T11:55:17;29.40;57.60
5576;DHT22;2810;50.134;8.626;2022-09-01T11:57:52;29.70;57.10
5576;DHT22;2810;50.134;8.626;2022-09-01T12:00:25;30.10;55.80
5576;DHT22;2810;50.134;8.626;2022-09-01T12:02:51;30.10;56.40
5576;DHT22;2810;50.134;8.626;2022-09-01T12:05:26;30.60;55.60
5576;DHT22;2810;50.134;8.626;2022-09-01T12:07:52;30.40;55.70
5576;DHT22;2810;50.134;8.626;2022-09-01T12:10:20;29.90;56.50
5576;DHT22;2810;50.134;8.626;2022-09-01T12:12:46;29.60;56.00
5576;DHT22;2810;50.134;8.626;2022-09-01T12:15:22;29.50;56.60
5576;DHT22;2810;50.134;8.626;2022-09-01T12:17:49;29.60;57.00
5576;DHT22;2810;50.134;8.626;2022-09-01T12:20:17;30.10;56.70
5576;DHT22;2810;50.134;8.626;2022-09-01T12:22:43;30.00;55.70
5576;DHT22;2810;50.134;8.626;2022-09-01T12:25:16;29.60;57.00
5576;DHT22;2810;50.134;8.626;2022-09-01T12:27:42;29.70;57.30
5576;DHT22;2810;50.134;8.626;2022-09-01T12:30:08;29.90;56.60
5576;DHT22;2810;50.134;8.626;2022-09-01T12:32:33;29.00;57.00
5576;DHT22;2810;50.134;8.626;2022-09-01T12:35:00;28.90;58.00
5576;DHT22;2810;50.134;8.626;2022-09-01T12:37:26;29.20;57.90
5576;DHT22;2810;50.134;8.626;2022-09-01T12:39:52;29.40;57.30
5576;DHT22;2810;50.134;8.626;2022-09-01T12:44:51;29.60;56.70
5576;DHT22;2810;50.134;8.626;2022-09-01T12:49:59;28.00;57.30
5576;DHT22;2810;50.134;8.626;2022-09-01T12:52:28;27.20;59.50
5576;DHT22;2810;50.134;8.626;2022-09-01T12:57:33;26.80;60.70
5576;DHT22;2810;50.134;8.626;2022-09-01T13:00:06;26.60;62.20
5576;DHT22;2810;50.134;8.626;2022-09-01T13:02:35;26.40;62.90
5576;DHT22;2810;50.134;8.626;2022-09-01T13:07:44;25.90;63.50
5576;DHT22;2810;50.134;8.626;2022-09-01T13:10:10;25.90;65.50
5576;DHT22;2810;50.134;8.626;2022-09-01T13:12:39;26.10;64.90
5576;DHT22;2810;50.134;8.626;2022-09-01T13:15:06;26.40;62.30
5576;DHT22;2810;50.134;8.626;2022-09-01T13:17:32;26.30;61.60
5576;DHT22;2810;50.134;8.626;2022-09-01T13:19:57;26.20;64.10
5576;DHT22;2810;50.134;8.626;2022-09-01T13:22:22;26.20;63.30
5576;DHT22;2810;50.134;8.626;2022-09-01T13:24:49;26.20;63.30
5576;DHT22;2810;50.134;8.626;2022-09-01T13:27:14;26.20;63.90
5576;DHT22;2810;50.134;8.626;2022-09-01T13:29:40;26.30;63.90
5576;DHT22;2810;50.134;8.626;2022-09-01T13:32:06;26.80;62.50
5576;DHT22;2810;50.134;8.626;2022-09-01T13:34:33;27.10;60.60
5576;DHT22;2810;50.134;8.626;2022-09-01T13:36:59;27.50;60.00
5576;DHT22;2810;50.134;8.626;2022-09-01T13:39:24;27.60;58.70
5576;DHT22;2810;50.134;8.626;2022-09-01T13:41:49;27.80;58.20
5576;DHT22;2810;50.134;8.626;2022-09-01T13:44:15;27.70;57.80
5576;DHT22;2810;50.134;8.626;2022-09-01T13:46:41;28.00;57.80
5576;DHT22;2810;50.134;8.626;2022-09-01T13:49:07;28.00;58.00
5576;DHT22;2810;50.134;8.626;2022-09-01T13:51:33;28.20;56.10
5576;DHT22;2810;50.134;8.626;2022-09-01T13:53:59;28.10;56.20
5576;DHT22;2810;50.134;8.626;2022-09-01T13:56:24;28.20;57.00
5576;DHT22;2810;50.134;8.626;2022-09-01T13:58:50;28.00;56.60
5576;DHT22;2810;50.134;8.626;2022-09-01T14:01:15;28.00;56.80
5576;DHT22;2810;50.134;8.626;2022-09-01T14:03:41;27.90;57.70
5576;DHT22;2810;50.134;8.626;2022-09-01T14:06:08;27.90;56.50
5576;DHT22;2810;50.134;8.626;2022-09-01T14:08:33;28.10;55.10
5576;DHT22;2810;50.134;8.626;2022-09-01T14:10:59;28.10;55.30
5576;DHT22;2810;50.134;8.626;2022-09-01T14:13:24;27.90;55.40
5576;DHT22;2810;50.134;8.626;2022-09-01T14:15:50;27.40;54.70
5576;DHT22;2810;50.134;8.626;2022-09-01T14:18:17;27.50;55.00
5576;DHT22;2810;50.134;8.626;2022-09-01T14:20:45;28.10;54.40
5576;DHT22;2810;50.134;8.626;2022-09-01T14:23:12;27.80;55.20
5576;DHT22;2810;50.134;8.626;2022-09-01T14:25:56;28.10;55.50
5576;DHT22;2810;50.134;8.626;2022-09-01T14:28:23;28.20;56.20
5576;DHT22;2810;50.134;8.626;2022-09-01T14:30:49;28.10;55.10
5576;DHT22;2810;50.134;8.626;2022-09-01T14:33:15;28.20;55.30
5576;DHT22;2810;50.134;8.626;2022-09-01T14:35:42;28.20;55.10
5576;DHT22;2810;50.134;8.626;2022-09-01T14:38:08;28.30;54.80
5576;DHT22;2810;50.134;8.626;2022-09-01T14:40:34;27.90;55.90
5576;DHT22;2810;50.134;8.626;2022-09-01T14:43:01;27.60;55.70
5576;DHT22;2810;50.134;8.626;2022-09-01T14:45:27;27.20;56.60
5576;DHT22;2810;50.134;8.626;2022-09-01T14:47:54;27.10;57.90
5576;DHT22;2810;50.134;8.626;2022-09-01T14:50:20;27.00;56.30
5576;DHT22;2810;50.134;8.626;2022-09-01T14:52:46;26.70;56.20
5576;DHT22;2810;50.134;8.626;2022-09-01T14:55:11;26.50;56.80
5576;DHT22;2810;50.134;8.626;2022-09-01T14:57:37;26.30;57.80
5576;DHT22;2810;50.134;8.626;2022-09-01T15:00:04;26.30;57.30
5576;DHT22;2810;50.134;8.626;2022-09-01T15:02:29;26.30;57.40
5576;DHT22;2810;50.134;8.626;2022-09-01T15:04:57;26.30;56.80
5576;DHT22;2810;50.134;8.626;2022-09-01T15:07:22;26.40;57.60
5576;DHT22;2810;50.134;8.626;2022-09-01T15:09:48;26.60;57.00
5576;DHT22;2810;50.134;8.626;2022-09-01T15:12:13;26.30;57.20
5576;DHT22;2810;50.134;8.626;2022-09-01T15:14:39;26.10;56.60
5576;DHT22;2810;50.134;8.626;2022-09-01T15:17:04;25.90;56.70
5576;DHT22;2810;50.134;8.626;2022-09-01T15:19:31;25.60;56.30
5576;DHT22;2810;50.134;8.626;2022-09-01T15:21:56;25.40;56.80
5576;DHT22;2810;50.134;8.626;2022-09-01T15:24:21;25.20;57.40
5576;DHT22;2810;50.134;8.626;2022-09-01T15:26:47;25.10;57.80
5576;DHT22;2810;50.134;8.626;2022-09-01T15:29:13;25.00;58.40
5576;DHT22;2810;50.134;8.626;2022-09-01T15:31:40;25.00;57.70
5576;DHT22;2810;50.134;8.626;2022-09-01T15:34:06;24.90;57.90
5576;DHT22;2810;50.134;8.626;2022-09-01T15:36:33;24.90;58.60
5576;DHT22;2810;50.134;8.626;2022-09-01T15:38:59;24.80;58.60
5576;DHT22;2810;50.134;8.626;2022-09-01T15:41:26;24.90;59.80
5576;DHT22;2810;50.134;8.626;2022-09-01T15:43:52;25.00;58.50
5576;DHT22;2810;50.134;8.626;2022-09-01T15:46:18;25.10;59.30
5576;DHT22;2810;50.134;8.626;2022-09-01T15:48:44;25.10;59.40
5576;DHT22;2810;50.134;8.626;2022-09-01T15:53:44;25.10;58.60
5576;DHT22;2810;50.134;8.626;2022-09-01T15:56:09;25.10;58.70
5576;DHT22;2810;50.134;8.626;2022-09-01T15:58:35;25.20;58.90
5576;DHT22;2810;50.134;8.626;2022-09-01T16:01:00;25.30;58.90
5576;DHT22;2810;50.134;8.626;2022-09-01T16:03:26;25.30;58.50
5576;DHT22;2810;50.134;8.626;2022-09-01T16:05:54;25.40;57.60
5576;DHT22;2810;50.134;8.626;2022-09-01T16:08:19;25.40;58.00
5576;DHT22;2810;50.134;8.626;2022-09-01T16:10:45;25.60;58.30
5576;DHT22;2810;50.134;8.626;2022-09-01T16:13:11;25.50;57.00
5576;DHT22;2810;50.134;8.626;2022-09-01T16:15:41;25.40;58.00
5576;DHT22;2810;50.134;8.626;2022-09-01T16:18:42;25.40;57.80
5576;DHT22;2810;50.134;8.626;2022-09-01T16:21:13;25.30;57.90
5576;DHT22;2810;50.134;8.626;2022-09-01T16:23:43;25.20;58.10
5576;DHT22;2810;50.134;8.626;2022-09-01T16:26:09;25.40;58.20
5576;DHT22;2810;50.134;8.626;2022-09-01T16:28:38;25.20;57.70
5576;DHT22;2810;50.134;8.626;2022-09-01T16:31:13;25.20;57.70
5576;DHT22;2810;50.134;8.626;2022-09-01T16:33:42;25.20;58.00
5576;DHT22;2810;50.134;8.626;2022-09-01T16:38:52;25.20;58.30
5576;DHT22;2810;50.134;8.626;2022-09-01T16:44:28;25.20;58.40
5576;DHT22;2810;50.134;8.626;2022-09-01T16:56:52;25.10;58.30
5576;DHT22;2810;50.134;8.626;2022-09-01T16:59:33;25.10;58.20
5576;DHT22;2810;50.134;8.626;2022-09-01T17:07:35;24.90;59.10
5576;DHT22;2810;50.134;8.626;2022-09-01T17:12:53;24.80;59.20
5576;DHT22;2810;50.134;8.626;2022-09-01T17:20:23;24.60;59.80
5576;DHT22;2810;50.134;8.626;2022-09-01T17:22:50;24.50;59.60
5576;DHT22;2810;50.134;8.626;2022-09-01T17:25:27;24.50;59.90
5576;DHT22;2810;50.134;8.626;2022-09-01T17:30:48;24.20;60.00
5576;DHT22;2810;50.134;8.626;2022-09-01T17:46:18;23.70;62.50